createdAt,value
2022-07-31T00:01:40.379Z,78.20
2022-07-31T00:16:41.926Z,73.99
2022-07-31T00:31:43.573Z,71.26
2022-07-31T00:46:45.511Z,85.41
2022-07-31T01:01:47.663Z,92.27
2022-07-31T01:16:51.699Z,90.86
2022-07-31T01:32:10.981Z,91.35
2022-07-31T01:47:14.292Z,89.69
2022-07-31T02:02:16.345Z,90.44
2022-07-31T02:17:19.252Z,70.74
2022-07-31T02:32:25.853Z,79.94
2022-07-31T02:47:28.254Z,75.77
2022-07-31T03:02:36.841Z,78.79
2022-07-31T03:17:41.032Z,73.25
2022-07-31T03:32:43.606Z,80.45
2022-07-31T03:47:45.287Z,73.31
2022-07-31T04:02:47.101Z,79.02
2022-07-31T04:17:48.828Z,73.42
2022-07-31T04:32:50.448Z,78.60
2022-07-31T04:47:51.985Z,74.06
2022-07-31T05:02:53.515Z,76.27
2022-07-31T05:17:55.140Z,77.11
2022-07-31T05:32:58.683Z,73.30
2022-07-31T05:48:00.301Z,69.85
2022-07-31T06:03:02.655Z,64.84
2022-07-31T06:18:04.310Z,58.46
2022-07-31T06:33:08.530Z,61.99
2022-07-31T06:48:13.900Z,66.24
2022-07-31T07:03:15.612Z,58.69
2022-07-31T07:18:17.215Z,55.96
2022-07-31T07:33:39.782Z,62.42
2022-07-31T07:48:40.346Z,63.77
2022-07-31T08:03:48.460Z,61.30
2022-07-31T08:18:54.507Z,64.06
2022-07-31T08:33:56.422Z,64.73
2022-07-31T08:48:58.370Z,65.13
2022-07-31T09:04:00.341Z,56.11
2022-07-31T09:19:03.559Z,58.35
2022-07-31T09:34:30.926Z,51.30
2022-07-31T09:49:33.249Z,47.81
2022-07-31T10:04:37.449Z,52.78
2022-07-31T10:19:41.376Z,52.36
2022-07-31T10:34:43.654Z,52.50
2022-07-31T10:49:46.471Z,46.14
2022-07-31T11:04:48.090Z,48.34
2022-07-31T11:19:49.649Z,47.63
2022-07-31T11:34:54.052Z,42.94
2022-07-31T11:50:03.002Z,48.96
2022-07-31T12:05:04.799Z,46.94
2022-07-31T12:20:07.369Z,41.79
2022-07-31T12:35:09.018Z,45.99
2022-07-31T12:50:10.723Z,46.05
2022-07-31T13:05:12.408Z,45.66
2022-07-31T13:20:14.618Z,45.87
2022-07-31T13:35:27.773Z,43.49
2022-07-31T13:50:30.287Z,44.89
2022-07-31T14:05:37.326Z,43.44
2022-07-31T14:20:42.258Z,45.12
2022-07-31T14:35:43.843Z,45.20
2022-07-31T14:50:45.636Z,45.87
2022-07-31T15:06:37.666Z,43.83
2022-07-31T15:21:12.538Z,44.43
2022-07-31T15:36:15.380Z,44.55
2022-07-31T15:51:16.953Z,44.35
2022-07-31T16:06:18.574Z,45.13
2022-07-31T16:21:20.121Z,44.62
2022-07-31T16:36:22.209Z,48.74
2022-07-31T16:51:23.833Z,49.43
2022-07-31T17:06:36.388Z,50.37
2022-07-31T17:21:38.753Z,52.55
2022-07-31T17:36:48.958Z,51.86
2022-07-31T17:51:58.759Z,55.10
2022-07-31T18:07:03.623Z,54.55
2022-07-31T18:22:05.530Z,55.15
2022-07-31T18:37:07.343Z,54.71
2022-07-31T18:52:09.503Z,55.03
2022-07-31T19:07:11.505Z,55.97
2022-07-31T19:22:14.000Z,54.87
2022-07-31T19:37:15.748Z,55.45
2022-07-31T19:52:17.418Z,56.25
2022-07-31T20:07:19.158Z,56.86
2022-07-31T20:22:20.799Z,54.59
2022-07-31T20:37:22.346Z,55.16
2022-07-31T20:52:23.906Z,56.05
2022-07-31T21:07:25.447Z,54.70
2022-07-31T21:22:27.080Z,53.25
2022-07-31T21:37:40.182Z,54.92
2022-07-31T21:52:41.873Z,52.37
2022-07-31T22:16:08.916Z,52.56
2022-07-31T22:31:10.565Z,53.37
2022-07-31T22:46:12.617Z,54.91
2022-07-31T23:01:14.194Z,54.67
2022-07-31T23:16:15.786Z,54.22
2022-07-31T23:31:17.621Z,54.58
2022-07-31T23:46:19.150Z,53.37
